Time;durP1;ratioP1;P1;durP2;ratioP2;P2;SDS_P1;SDS_P2;PMS_P1;PMS_P2;Temp;Humidity;BMP_temperature;BMP_pressure;BME280_temperature;BME280_humidity;BME280_pressure;Samples;Min_cycle;Max_cycle;Signal;HPM_P1;HPM_P2
2023/09/27 00:00:30;;;;;;;;;18.25;14.00;;;;;19.85;57.52;101311.16;5038562;28;61903;-73
2023/09/27 00:02:57;;;;;;;;;15.00;13.25;;;;;19.87;57.17;101322.53;5046194;28;45470;-73
2023/09/27 00:05:23;;;;;;;;;17.75;16.25;;;;;19.84;57.85;101331.50;5038099;28;48251;-73
2023/09/27 00:07:51;;;;;;;;;15.75;15.25;;;;;19.83;57.76;101340.44;5053948;28;45826;-73
2023/09/27 00:10:16;;;;;;;;;18.50;15.00;;;;;19.82;57.85;101333.41;5027748;28;45499;-72
2023/09/27 00:12:42;;;;;;;;;19.75;14.25;;;;;19.81;57.50;101328.19;5049732;28;52964;-72
2023/09/27 00:15:08;;;;;;;;;11.50;11.50;;;;;19.83;57.69;101334.25;5051700;28;45941;-73
2023/09/27 00:17:34;;;;;;;;;16.75;15.25;;;;;19.81;57.46;101331.69;5049451;28;45476;-72
2023/09/27 00:19:59;;;;;;;;;16.00;13.75;;;;;19.79;57.81;101327.41;5038677;28;60518;-73
2023/09/27 00:22:44;;;;;;;;;16.50;14.75;;;;;19.79;57.87;101330.06;5053894;28;72832;-73
2023/09/27 00:25:10;;;;;;;;;18.25;13.00;;;;;19.78;57.97;101329.22;5042615;28;47192;-74
2023/09/27 00:27:36;;;;;;;;;15.00;13.25;;;;;19.78;58.23;101331.00;5042995;28;62980;-73
2023/09/27 00:30:07;;;;;;;;;16.50;14.25;;;;;19.78;57.91;101331.88;5051325;28;45399;-73
2023/09/27 00:32:33;;;;;;;;;19.50;11.50;;;;;19.78;58.34;101328.34;5046713;28;45556;-73
2023/09/27 00:34:59;;;;;;;;;16.25;12.75;;;;;19.77;58.36;101324.84;5047214;28;45526;-73
2023/09/27 00:37:24;;;;;;;;;15.75;14.25;;;;;19.76;58.31;101324.91;5049121;28;45461;-73
2023/09/27 00:39:50;;;;;;;;;14.50;12.00;;;;;19.75;57.89;101329.38;5052682;28;45751;-73
2023/09/27 00:42:15;;;;;;;;;18.00;12.00;;;;;19.76;58.17;101332.88;5056717;28;64169;-73
2023/09/27 00:44:40;;;;;;;;;12.75;12.50;;;;;19.76;58.45;101323.16;5055401;28;73576;-73
2023/09/27 00:47:06;;;;;;;;;12.75;12.50;;;;;19.76;58.08;101319.59;5059884;28;45260;-73
2023/09/27 00:49:32;;;;;;;;;12.25;10.50;;;;;19.73;57.96;101312.66;5055437;28;45540;-73
2023/09/27 00:51:58;;;;;;;;;17.00;13.00;;;;;19.76;58.40;101312.53;5029431;28;70686;-73
2023/09/27 00:54:24;;;;;;;;;13.50;12.25;;;;;19.75;58.64;101310.78;5049486;28;46134;-73
2023/09/27 00:56:51;;;;;;;;;18.25;12.50;;;;;19.75;58.23;101307.28;5051107;28;45457;-73
2023/09/27 00:59:17;;;;;;;;;14.25;12.00;;;;;19.76;58.23;101311.63;5041996;28;45681;-73
2023/09/27 01:01:44;;;;;;;;;19.25;14.75;;;;;19.70;58.87;101305.69;5056449;28;61460;-73
2023/09/27 01:04:12;;;;;;;;;11.75;9.50;;;;;19.73;59.21;101318.84;5051709;28;48627;-73
2023/09/27 01:06:38;;;;;;;;;18.00;14.50;;;;;19.71;59.33;101312.72;5056454;28;45590;-73
2023/09/27 01:09:03;;;;;;;;;18.25;15.00;;;;;19.72;59.11;101308.28;5034768;28;45534;-73
2023/09/27 01:11:29;;;;;;;;;19.75;14.25;;;;;19.70;59.38;101300.38;5054238;28;54461;-73
2023/09/27 01:13:54;;;;;;;;;20.25;15.25;;;;;19.69;59.56;101290.72;5057413;28;45433;-73
2023/09/27 01:16:20;;;;;;;;;15.50;14.00;;;;;19.69;59.50;101303.16;5052973;28;47189;-73
2023/09/27 01:18:45;;;;;;;;;22.75;16.75;;;;;19.67;59.58;101299.69;5058228;28;63713;-72
2023/09/27 01:21:10;;;;;;;;;18.75;15.75;;;;;19.68;59.93;101301.44;5048478;28;74463;-72
2023/09/27 01:23:40;;;;;;;;;15.50;13.50;;;;;19.65;59.62;101294.47;5051422;28;47221;-73
2023/09/27 01:26:07;;;;;;;;;23.00;14.00;;;;;19.64;59.82;101297.25;5065291;27;45810;-73
2023/09/27 01:28:33;;;;;;;;;17.75;15.00;;;;;19.60;60.56;101301.88;5039293;28;60842;-73
2023/09/27 01:30:58;;;;;;;;;16.50;13.50;;;;;19.60;60.44;101303.66;5052955;28;61758;-72
2023/09/27 01:33:25;;;;;;;;;16.00;14.25;;;;;19.57;60.21;101311.81;5048426;28;47709;-72
2023/09/27 01:35:51;;;;;;;;;15.75;14.00;;;;;19.54;60.45;101321.63;5050255;28;45850;-72
2023/09/27 01:38:16;;;;;;;;;14.25;12.25;;;;;19.52;60.44;101318.22;5067309;27;45540;-71
2023/09/27 01:40:44;;;;;;;;;15.00;13.75;;;;;19.50;60.81;101314.78;5046573;28;45569;-71
2023/09/27 01:43:10;;;;;;;;;18.75;15.00;;;;;19.46;60.88;101309.72;5050429;28;45652;-71
2023/09/27 01:45:36;;;;;;;;;14.00;13.50;;;;;19.50;61.09;101312.13;5044628;28;45426;-71
2023/09/27 01:48:02;;;;;;;;;16.25;13.50;;;;;19.49;61.05;101310.41;5057099;28;45369;-73
2023/09/27 01:50:29;;;;;;;;;15.50;13.25;;;;;19.48;61.11;101300.75;5051661;28;45675;-71
2023/09/27 01:52:56;;;;;;;;;16.75;13.00;;;;;19.46;61.34;101299.09;5043916;28;45441;-72
2023/09/27 01:55:22;;;;;;;;;17.00;13.00;;;;;19.41;60.92;101304.69;5051900;28;45350;-72
2023/09/27 01:57:47;;;;;;;;;13.50;13.25;;;;;19.43;60.68;101310.75;5049412;28;45470;-72
2023/09/27 02:00:14;;;;;;;;;19.00;14.25;;;;;19.43;60.96;101313.41;5037602;28;45681;-71
2023/09/27 02:02:51;;;;;;;;;14.00;12.75;;;;;19.41;61.28;101317.94;5038422;28;48271;-71
2023/09/27 02:05:16;;;;;;;;;14.50;14.00;;;;;19.37;61.53;101319.06;5047271;28;45391;-71
2023/09/27 02:07:41;;;;;;;;;15.00;13.00;;;;;19.37;60.89;101324.38;5052936;28;45343;-71
2023/09/27 02:10:11;;;;;;;;;15.50;13.00;;;;;19.37;61.17;101315.53;5054599;28;47867;-71
2023/09/27 02:12:37;;;;;;;;;15.25;13.25;;;;;19.36;61.22;101312.03;5051750;28;45462;-72
2023/09/27 02:15:07;;;;;;;;;14.75;12.00;;;;;19.35;61.81;101313.84;5056621;28;45458;-72
2023/09/27 02:17:32;;;;;;;;;21.50;14.00;;;;;19.33;61.72;101315.69;5054917;28;45442;-71
2023/09/27 02:20:07;;;;;;;;;17.25;13.00;;;;;19.33;61.68;101313.03;5058527;28;45592;-72
2023/09/27 02:22:43;;;;;;;;;20.50;14.00;;;;;19.32;61.28;101302.53;5063067;27;46643;-71
2023/09/27 02:25:16;;;;;;;;;18.25;15.00;;;;;19.17;61.43;101275.03;5054842;28;45454;-71
2023/09/27 02:27:59;;;;;;;;;19.75;14.25;;;;;19.16;62.11;101273.31;5055322;27;45407;-71
2023/09/27 02:30:25;;;;;;;;;13.75;13.50;;;;;19.25;61.42;101280.78;5038467;28;45499;-72
2023/09/27 02:33:16;;;;;;;;;18.25;14.75;;;;;19.25;61.75;101298.50;5052669;28;46038;-71
2023/09/27 02:35:55;;;;;;;;;17.50;14.50;;;;;19.22;61.71;101296.00;5054538;28;46024;-70
2023/09/27 02:38:23;;;;;;;;;15.25;12.75;;;;;19.19;61.90;101290.88;5048637;28;45560;-71
2023/09/27 02:40:48;;;;;;;;;15.25;11.75;;;;;19.08;62.10;101286.13;5037572;28;45399;-71
2023/09/27 02:43:23;;;;;;;;;15.25;12.75;;;;;19.13;62.02;101300.03;5051399;28;46475;-72
2023/09/27 02:45:49;;;;;;;;;15.75;12.75;;;;;19.09;61.84;101299.31;5049634;28;45442;-72
2023/09/27 02:48:14;;;;;;;;;14.25;12.25;;;;;19.11;62.24;101300.09;5034559;28;45872;-72
2023/09/27 02:50:40;;;;;;;;;13.50;12.75;;;;;19.11;62.33;101302.75;5043217;28;69741;-72
2023/09/27 02:53:05;;;;;;;;;15.00;14.25;;;;;19.08;62.20;101302.91;5052642;28;70977;-71
2023/09/27 02:55:30;;;;;;;;;11.50;11.50;;;;;19.09;62.36;101311.75;5040378;28;45211;-71
2023/09/27 02:57:56;;;;;;;;;13.50;10.75;;;;;19.04;62.53;101300.53;5030627;28;45476;-72
2023/09/27 03:00:21;;;;;;;;;19.75;16.25;;;;;19.02;62.03;101305.91;5045278;28;64925;-72
2023/09/27 03:02:47;;;;;;;;;19.50;18.25;;;;;19.02;62.75;101305.91;5054539;28;45441;-72
2023/09/27 03:05:12;;;;;;;;;21.50;19.25;;;;;19.00;62.31;101302.47;5054584;28;55919;-72
2023/09/27 03:07:38;;;;;;;;;22.75;20.50;;;;;19.00;62.86;101297.16;5056760;28;55885;-72
2023/09/27 03:10:10;;;;;;;;;29.25;25.75;;;;;18.96;62.74;101293.84;5040877;28;45335;-72
2023/09/27 03:12:38;;;;;;;;;26.25;22.75;;;;;18.95;62.61;101299.22;5048952;28;45581;-71
2023/09/27 03:15:05;;;;;;;;;29.50;24.25;;;;;18.91;62.89;101289.69;5037649;28;46484;-71
2023/09/27 03:17:30;;;;;;;;;32.00;21.50;;;;;18.89;62.28;101292.44;5062362;28;45581;-72
2023/09/27 03:19:56;;;;;;;;;30.00;23.25;;;;;18.86;62.78;101294.41;5048613;28;50604;-71
2023/09/27 03:22:22;;;;;;;;;25.50;20.75;;;;;18.80;62.98;101287.56;5047265;28;50666;-71
2023/09/27 03:24:47;;;;;;;;;28.50;22.00;;;;;18.79;62.92;101277.91;5057109;28;45284;-72
2023/09/27 03:27:12;;;;;;;;;28.25;20.00;;;;;18.69;62.91;101264.28;5044938;28;67539;-72
2023/09/27 03:29:39;;;;;;;;;23.50;22.50;;;;;18.73;63.46;101263.19;5056171;28;45677;-72
2023/09/27 03:32:05;;;;;;;;;23.25;20.75;;;;;18.77;63.40;101275.34;5049968;27;47090;-72
2023/09/27 03:34:31;;;;;;;;;21.50;21.50;;;;;18.76;63.21;101276.25;5069970;28;45431;-72
2023/09/27 03:36:57;;;;;;;;;21.00;19.50;;;;;18.74;63.37;101267.53;5038366;28;45610;-72
2023/09/27 03:39:22;;;;;;;;;27.75;22.00;;;;;18.79;63.41;101267.31;5043337;28;46290;-72
2023/09/27 03:41:50;;;;;;;;;26.25;22.25;;;;;18.76;63.69;101263.00;5050958;28;45442;-72
2023/09/27 03:44:15;;;;;;;;;27.25;23.00;;;;;18.79;63.63;101259.34;5047743;28;45713;-72
2023/09/27 03:46:40;;;;;;;;;28.00;22.75;;;;;18.79;63.63;101256.69;5048674;28;55310;-72
2023/09/27 03:49:06;;;;;;;;;29.00;21.00;;;;;18.76;63.44;101256.84;5044147;28;64003;-72
2023/09/27 03:51:31;;;;;;;;;27.75;22.50;;;;;18.75;63.55;101260.44;5052470;28;45554;-72
2023/09/27 03:53:56;;;;;;;;;23.25;22.50;;;;;18.77;63.78;101255.94;5047018;28;53202;-72
2023/09/27 03:56:22;;;;;;;;;28.75;22.75;;;;;18.77;63.64;101258.59;5051361;28;53677;-72
2023/09/27 03:58:48;;;;;;;;;27.50;21.75;;;;;18.72;63.69;101250.00;5051828;28;45367;-72
2023/09/27 04:01:15;;;;;;;;;26.50;24.00;;;;;18.75;63.72;101250.72;5042424;28;47159;-72
2023/09/27 04:03:40;;;;;;;;;26.00;21.00;;;;;18.77;63.84;101261.25;5056423;28;45578;-72
2023/09/27 04:06:06;;;;;;;;;26.75;23.50;;;;;18.71;63.86;101245.63;5036508;28;45469;-72
2023/09/27 04:08:32;;;;;;;;;24.25;21.00;;;;;18.71;63.92;101243.84;5058058;28;45435;-72
2023/09/27 04:10:57;;;;;;;;;25.00;20.25;;;;;18.73;64.15;101249.94;5050409;28;45506;-72
2023/09/27 04:13:22;;;;;;;;;19.50;18.00;;;;;18.71;64.20;101243.84;5057329;28;45345;-72
2023/09/27 04:15:51;;;;;;;;;11.75;10.25;;;;;18.66;64.32;101229.13;5041023;28;45440;-72
2023/09/27 04:18:16;;;;;;;;;14.50;14.25;;;;;18.63;64.19;101219.53;5058089;28;45535;-72
2023/09/27 04:20:41;;;;;;;;;12.75;11.50;;;;;18.70;64.33;101241.28;5049184;28;46020;-72
2023/09/27 04:23:07;;;;;;;;;13.00;11.25;;;;;18.66;63.90;101237.94;5054997;28;59565;-72
2023/09/27 04:25:32;;;;;;;;;12.00;9.00;;;;;18.62;64.11;101232.88;5052339;28;69346;-73
2023/09/27 04:27:57;;;;;;;;;13.25;11.50;;;;;18.62;63.88;101233.72;5045355;28;70067;-72
2023/09/27 04:30:24;;;;;;;;;15.25;11.00;;;;;18.63;64.32;101235.44;5044094;28;46908;-72
2023/09/27 04:32:50;;;;;;;;;9.00;7.50;;;;;18.60;64.14;101232.94;5056096;28;45921;-72
2023/09/27 04:35:16;;;;;;;;;14.25;11.00;;;;;18.59;64.17;101231.22;5059683;28;45577;-72
2023/09/27 04:37:41;;;;;;;;;12.50;9.75;;;;;18.54;64.52;101223.53;5055564;28;45387;-72
2023/09/27 04:40:14;;;;;;;;;13.75;12.25;;;;;18.55;64.00;101217.28;5052743;28;45597;-72
2023/09/27 04:42:40;;;;;;;;;13.75;11.75;;;;;18.54;64.76;101215.59;5068424;27;45554;-72
2023/09/27 04:45:07;;;;;;;;;13.75;9.75;;;;;18.52;64.33;101227.19;5049612;28;45415;-72
2023/09/27 04:47:32;;;;;;;;;12.00;10.00;;;;;18.50;64.43;101231.72;5060977;28;45716;-72
2023/09/27 04:49:58;;;;;;;;;17.25;11.00;;;;;18.44;64.62;101221.44;5048385;28;46155;-72
2023/09/27 04:52:24;;;;;;;;;10.75;10.00;;;;;18.40;64.45;101221.59;5053882;28;45548;-72
2023/09/27 04:54:54;;;;;;;;;9.50;8.50;;;;;18.38;64.79;101219.97;5054751;27;45304;-72
2023/09/27 04:57:27;;;;;;;;;11.75;10.00;;;;;18.36;64.49;101224.47;5054738;28;45475;-72
2023/09/27 04:59:52;;;;;;;;;11.75;10.00;;;;;18.31;64.87;101211.50;5059628;28;47604;-73
2023/09/27 05:02:21;;;;;;;;;11.50;9.00;;;;;18.23;64.61;101204.88;5049193;28;45560;-73
2023/09/27 05:04:47;;;;;;;;;11.75;8.75;;;;;18.26;64.75;101210.03;5043063;28;45433;-73
2023/09/27 05:07:18;;;;;;;;;14.00;10.50;;;;;18.23;64.63;101207.53;5049492;28;45332;-73
2023/09/27 05:09:43;;;;;;;;;14.50;9.00;;;;;18.20;64.59;101209.41;5047249;28;46009;-73
2023/09/27 05:12:09;;;;;;;;;12.75;12.00;;;;;18.15;64.71;101199.94;5054294;28;45577;-73
2023/09/27 05:14:35;;;;;;;;;10.00;9.00;;;;;18.07;64.97;101202.16;5057367;27;45474;-73
2023/09/27 05:17:00;;;;;;;;;13.50;9.75;;;;;17.95;64.73;101187.72;5053931;28;45657;-73
2023/09/27 05:19:26;;;;;;;;;14.00;10.75;;;;;17.97;65.17;101197.31;5045922;28;46222;-73
2023/09/27 05:21:51;;;;;;;;;10.00;10.00;;;;;18.00;64.69;101206.91;5049252;28;47069;-72
2023/09/27 05:24:17;;;;;;;;;14.00;10.25;;;;;17.97;64.89;101201.75;5058679;28;45467;-72
2023/09/27 05:26:42;;;;;;;;;11.00;10.00;;;;;17.96;65.08;101203.53;5056256;28;45619;-72
2023/09/27 05:29:13;;;;;;;;;10.25;9.25;;;;;17.90;65.03;101203.88;5059249;28;46362;-72
2023/09/27 05:31:40;;;;;;;;;14.25;10.75;;;;;17.98;65.17;101212.25;5039356;28;45401;-74
2023/09/27 05:34:07;;;;;;;;;12.75;10.25;;;;;17.96;65.45;101219.44;5050614;28;45289;-74
2023/09/27 05:36:33;;;;;;;;;10.50;8.75;;;;;17.94;65.30;101223.94;5066304;28;45430;-73
2023/09/27 05:38:58;;;;;;;;;13.00;9.25;;;;;17.91;65.45;101234.69;5055273;28;47928;-71
2023/09/27 05:41:26;;;;;;;;;15.25;10.50;;;;;17.90;65.61;101242.72;5048194;28;71574;-73
2023/09/27 05:43:52;;;;;;;;;11.25;10.25;;;;;17.89;65.62;101244.50;5056042;28;45552;-72
2023/09/27 05:46:17;;;;;;;;;10.75;9.75;;;;;17.88;65.91;101250.72;5049011;28;45309;-72
2023/09/27 05:48:42;;;;;;;;;11.00;10.00;;;;;17.83;65.44;101243.00;5064278;27;48091;-72
2023/09/27 05:51:08;;;;;;;;;10.75;10.00;;;;;17.87;65.64;101250.81;5050046;28;45273;-72
2023/09/27 05:53:33;;;;;;;;;9.75;9.00;;;;;17.85;65.71;101253.50;5058265;28;45727;-71
2023/09/27 05:56:03;;;;;;;;;14.00;13.00;;;;;17.87;65.81;101256.13;5052987;28;60157;-72
2023/09/27 05:58:29;;;;;;;;;21.00;14.00;;;;;17.87;65.49;101251.66;5054367;28;46840;-72
2023/09/27 06:00:55;;;;;;;;;15.25;12.00;;;;;17.84;65.67;101251.78;5050763;28;45502;-72
2023/09/27 06:03:20;;;;;;;;;13.25;10.50;;;;;17.86;65.85;101255.25;5059582;27;45422;-72
2023/09/27 06:05:46;;;;;;;;;17.00;12.25;;;;;17.89;65.93;101268.34;5054106;28;50372;-72
2023/09/27 06:08:11;;;;;;;;;12.75;11.25;;;;;17.88;65.81;101263.97;5036211;28;46963;-73
2023/09/27 06:10:36;;;;;;;;;13.00;12.00;;;;;17.88;65.69;101257.81;5041139;28;63929;-72
2023/09/27 06:13:03;;;;;;;;;12.00;11.25;;;;;17.92;65.90;101267.31;5043424;28;63705;-72
2023/09/27 06:15:32;;;;;;;;;13.25;11.25;;;;;17.95;65.89;101267.16;5043135;28;45676;-72
2023/09/27 06:17:58;;;;;;;;;14.50;12.00;;;;;17.95;65.96;101268.03;5040717;28;47116;-75
2023/09/27 06:20:29;;;;;;;;;15.00;13.25;;;;;17.97;65.75;101266.19;5044124;28;45409;-76
2023/09/27 06:22:57;;;;;;;;;11.75;10.75;;;;;17.99;65.82;101266.97;5037478;28;45513;-76
2023/09/27 06:25:24;;;;;;;;;17.25;13.25;;;;;17.98;65.88;101265.22;5042572;28;45863;-71
2023/09/27 06:27:51;;;;;;;;;14.75;11.00;;;;;18.03;65.85;101273.81;5038489;28;47154;-78
2023/09/27 06:30:17;;;;;;;;;14.75;10.75;;;;;18.06;65.61;101271.94;5058279;28;45720;-79
2023/09/27 06:32:42;;;;;;;;;16.25;14.00;;;;;18.07;65.55;101261.25;5048813;28;45339;-77
2023/09/27 06:35:14;;;;;;;;;16.50;15.25;;;;;18.12;65.81;101269.84;5041238;28;45209;-80
2023/09/27 06:37:40;;;;;;;;;15.00;13.25;;;;;18.17;65.50;101270.47;5056337;28;47031;-78
2023/09/27 06:40:09;;;;;;;;;18.00;13.50;;;;;18.23;65.47;101279.91;5043667;28;45794;-76
2023/09/27 06:42:36;;;;;;;;;13.50;11.75;;;;;18.25;65.28;101275.38;5064165;27;45552;-81
2023/09/27 06:45:01;;;;;;;;;15.50;12.25;;;;;18.33;65.20;101275.00;5054811;28;45974;-77
2023/09/27 06:47:28;;;;;;;;;14.25;13.75;;;;;18.39;65.17;101272.03;5048637;28;46199;-73
2023/09/27 06:49:56;;;;;;;;;14.50;13.75;;;;;18.46;64.97;101280.53;5043800;28;45458;-76
2023/09/27 06:52:22;;;;;;;;;19.00;13.75;;;;;18.50;64.98;101292.69;5050676;28;45272;-78
2023/09/27 06:54:48;;;;;;;;;19.75;14.25;;;;;18.55;64.88;101298.59;5038993;28;45455;-78
2023/09/27 06:57:13;;;;;;;;;19.25;15.75;;;;;18.58;64.68;101295.81;5052165;28;45538;-73
2023/09/27 06:59:38;;;;;;;;;20.50;15.00;;;;;18.65;64.77;101294.53;5064982;28;45749;-73
2023/09/27 07:02:05;;;;;;;;;19.75;15.50;;;;;18.69;64.85;101284.63;5053258;28;46461;-78
2023/09/27 07:04:30;;;;;;;;;15.25;12.50;;;;;18.73;64.49;101276.44;5048074;28;45848;-72
2023/09/27 07:06:56;;;;;;;;;13.25;10.75;;;;;18.84;64.15;101283.88;5053051;28;47402;-72
2023/09/27 07:09:22;;;;;;;;;13.75;13.00;;;;;18.91;64.13;101287.91;5042239;28;45876;-72
2023/09/27 07:11:48;;;;;;;;;16.00;13.25;;;;;18.96;63.97;101288.53;5045099;28;45611;-72
2023/09/27 07:14:15;;;;;;;;;11.75;11.75;;;;;19.04;64.13;101281.94;5049164;28;45431;-72
2023/09/27 07:16:41;;;;;;;;;36.00;29.25;;;;;19.13;64.05;101281.44;5049947;27;45340;-72
2023/09/27 07:19:06;;;;;;;;;32.00;24.25;;;;;19.20;64.00;101279.31;5043679;28;45452;-72
2023/09/27 07:21:32;;;;;;;;;20.00;18.50;;;;;19.30;63.38;101280.50;5051934;28;45240;-72
2023/09/27 07:23:57;;;;;;;;;20.25;14.75;;;;;19.36;63.51;101266.91;5045168;28;45532;-71
2023/09/27 07:26:23;;;;;;;;;21.50;13.50;;;;;19.41;63.24;101264.03;5044981;28;45278;-69
2023/09/27 07:28:50;;;;;;;;;14.50;13.25;;;;;19.48;63.19;101270.69;5051533;28;45556;-69
2023/09/27 07:31:16;;;;;;;;;13.50;12.50;;;;;19.52;63.01;101264.25;5053830;28;45523;-68
2023/09/27 07:33:44;;;;;;;;;18.50;14.50;;;;;19.54;62.81;101268.53;5052841;28;46074;-76
2023/09/27 07:36:09;;;;;;;;;16.50;14.00;;;;;19.64;62.96;101276.00;5051929;28;45986;-76
2023/09/27 07:38:37;;;;;;;;;16.25;13.75;;;;;19.67;62.62;101271.38;5056624;28;45343;-79
2023/09/27 07:41:03;;;;;;;;;19.50;15.00;;;;;19.71;62.52;101267.59;5052245;28;45242;-79
2023/09/27 07:43:29;;;;;;;;;40.00;32.50;;;;;19.77;62.22;101265.56;5058579;28;45320;-79
2023/09/27 07:45:55;;;;;;;;;15.25;11.50;;;;;19.80;62.30;101276.88;5053368;28;45499;-77
2023/09/27 07:48:21;;;;;;;;;16.75;15.00;;;;;19.86;62.05;101270.34;5062969;28;45716;-76
2023/09/27 07:50:47;;;;;;;;;16.25;15.50;;;;;19.94;61.68;101273.41;5062690;28;46537;-79
2023/09/27 07:53:12;;;;;;;;;13.25;11.50;;;;;20.00;61.76;101275.72;5053367;28;45300;-79
2023/09/27 07:55:50;;;;;;;;;20.00;15.25;;;;;20.05;61.43;101273.66;5048442;28;45379;-76
2023/09/27 07:58:16;;;;;;;;;113.75;96.75;;;;;20.15;61.35;101271.31;5056867;28;45316;-77
2023/09/27 08:00:42;;;;;;;;;217.25;176.75;;;;;20.22;61.58;101266.47;5059157;28;45480;-80
2023/09/27 08:03:10;;;;;;;;;24.75;19.50;;;;;20.28;61.13;101268.78;5046772;28;45904;-74
2023/09/27 08:05:42;;;;;;;;;19.75;16.00;;;;;20.34;61.00;101256.94;5048462;28;47393;-76
2023/09/27 08:08:13;;;;;;;;;23.00;15.00;;;;;20.36;60.69;101249.72;5061731;28;45756;-76
2023/09/27 08:10:43;;;;;;;;;19.00;17.00;;;;;20.42;60.67;101247.53;5066818;28;45660;-75
2023/09/27 08:13:10;;;;;;;;;17.75;12.25;;;;;20.51;60.54;101253.25;5069226;27;45457;-81
2023/09/27 08:15:35;;;;;;;;;20.25;15.25;;;;;20.60;60.58;101250.03;5034728;28;47229;-81
2023/09/27 08:18:02;;;;;;;;;18.75;14.50;;;;;20.66;59.73;101250.56;5059019;28;45714;-75
2023/09/27 08:20:27;;;;;;;;;17.75;13.75;;;;;20.72;59.68;101245.81;5064644;28;46103;-78
2023/09/27 08:22:53;;;;;;;;;21.75;13.00;;;;;20.81;59.92;101253.22;5046536;28;45556;-76
2023/09/27 08:25:19;;;;;;;;;15.00;10.50;;;;;20.88;59.53;101241.25;5055429;28;72578;-75
2023/09/27 08:27:44;;;;;;;;;20.00;13.00;;;;;20.95;59.29;101245.22;5042424;28;45282;-73
2023/09/27 08:30:11;;;;;;;;;16.25;15.00;;;;;20.98;59.22;101246.84;5067307;28;45454;-75
2023/09/27 08:32:38;;;;;;;;;20.00;15.50;;;;;20.98;59.12;101237.06;5032310;28;45507;-71
2023/09/27 08:35:05;;;;;;;;;24.25;18.50;;;;;21.00;59.05;101234.28;5060601;28;47218;-83
2023/09/27 08:37:30;;;;;;;;;48.75;36.00;;;;;20.98;58.33;101226.44;5063397;27;45510;-74
2023/09/27 08:39:56;;;;;;;;;26.00;21.75;;;;;20.99;59.05;101216.63;5054970;28;45405;-83
2023/09/27 08:42:22;;;;;;;;;18.50;16.25;;;;;20.99;59.05;101212.16;5042539;28;45760;-72
2023/09/27 08:44:49;;;;;;;;;17.50;16.25;;;;;21.05;58.49;101214.44;5039585;28;47035;-74
2023/09/27 08:47:15;;;;;;;;;20.25;13.50;;;;;21.09;58.94;101208.91;5043990;28;45741;-71
2023/09/27 08:49:41;;;;;;;;;22.50;14.00;;;;;21.15;58.70;101201.38;5050228;28;45491;-71
2023/09/27 08:52:09;;;;;;;;;14.50;13.00;;;;;21.24;58.39;101202.59;5051358;28;45474;-72
2023/09/27 08:54:35;;;;;;;;;68.00;49.75;;;;;21.28;58.19;101188.13;5055320;28;45697;-77
2023/09/27 08:57:02;;;;;;;;;20.00;18.50;;;;;21.38;57.75;101196.38;5044067;28;71885;-72
2023/09/27 08:59:28;;;;;;;;;21.25;14.50;;;;;21.42;57.20;101182.78;5063850;28;45490;-73
2023/09/27 09:01:53;;;;;;;;;12.25;8.75;;;;;21.45;57.84;101180.88;5047102;28;45422;-75
2023/09/27 09:04:19;;;;;;;;;16.75;12.75;;;;;21.49;57.37;101177.06;5044335;28;45486;-70
2023/09/27 09:06:44;;;;;;;;;14.50;10.25;;;;;21.51;57.17;101178.66;5052631;28;45387;-74
2023/09/27 09:09:13;;;;;;;;;12.00;10.00;;;;;21.55;56.99;101172.19;5053916;28;45347;-70
2023/09/27 09:11:47;;;;;;;;;13.75;10.50;;;;;21.63;57.25;101165.50;5047437;28;45294;-73
2023/09/27 09:14:17;;;;;;;;;35.50;25.00;;;;;21.65;57.07;101172.44;5068168;28;45441;-66
2023/09/27 09:16:49;;;;;;;;;17.00;12.50;;;;;21.68;56.89;101168.72;5040442;28;45420;-67
2023/09/27 09:19:23;;;;;;;;;14.50;10.75;;;;;21.73;56.98;101174.59;5047466;28;45480;-66
2023/09/27 09:22:05;;;;;;;;;11.75;10.00;;;;;21.76;57.01;101169.91;5061236;28;46130;-67
2023/09/27 09:24:35;;;;;;;;;16.00;10.25;;;;;21.76;57.18;101169.91;5056295;28;45998;-64
2023/09/27 09:27:12;;;;;;;;;12.00;11.50;;;;;21.75;56.80;101168.19;5053347;28;45762;-70
2023/09/27 09:29:46;;;;;;;;;11.50;9.75;;;;;21.78;56.81;101167.16;5060905;28;45435;-69
2023/09/27 09:32:17;;;;;;;;;11.75;9.25;;;;;21.78;56.96;101159.16;5056101;28;45751;-68
2023/09/27 09:34:44;;;;;;;;;12.00;9.75;;;;;21.83;56.50;101167.66;5054019;28;46342;-68
2023/09/27 09:37:23;;;;;;;;;14.75;10.75;;;;;21.87;56.69;101158.53;5054199;28;45483;-70
2023/09/27 09:39:50;;;;;;;;;14.25;11.25;;;;;21.90;56.58;101158.34;5067110;27;45392;-68
2023/09/27 09:42:34;;;;;;;;;14.25;10.00;;;;;21.97;56.37;101156.06;5053220;28;45804;-71
2023/09/27 09:45:07;;;;;;;;;27.75;20.50;;;;;22.00;56.67;101164.72;5061176;28;48046;-68
2023/09/27 09:47:36;;;;;;;;;21.50;15.75;;;;;22.07;55.90;101156.31;5067996;27;45506;-67
2023/09/27 09:50:14;;;;;;;;;10.50;10.50;;;;;22.14;55.58;101161.09;5032734;28;45635;-70
2023/09/27 09:52:39;;;;;;;;;11.75;10.75;;;;;22.21;55.46;101164.22;5048951;28;46168;-69
2023/09/27 09:55:08;;;;;;;;;12.00;9.00;;;;;22.29;55.54;101159.25;5071456;28;48134;-69
2023/09/27 09:57:37;;;;;;;;;11.00;9.75;;;;;22.37;55.42;101154.22;5053892;28;45318;-70
2023/09/27 10:00:25;;;;;;;;;11.75;7.75;;;;;22.44;54.90;101145.78;5056506;28;45450;-69
2023/09/27 10:02:58;;;;;;;;;9.25;9.25;;;;;22.50;54.25;101132.00;5051565;28;45423;-71
2023/09/27 10:05:24;;;;;;;;;12.25;8.00;;;;;22.55;54.72;101130.72;5055570;27;46918;-70
2023/09/27 10:07:51;;;;;;;;;14.50;9.25;;;;;22.63;54.21;101135.53;5061024;28;45482;-71
2023/09/27 10:10:17;;;;;;;;;11.50;9.00;;;;;22.67;54.38;101117.47;5065938;28;45505;-69
2023/09/27 10:12:46;;;;;;;;;12.25;10.00;;;;;22.75;54.32;101115.09;5063416;28;45558;-70
2023/09/27 10:15:14;;;;;;;;;8.25;8.25;;;;;22.80;54.04;101120.94;5052973;28;45358;-68
2023/09/27 10:17:39;;;;;;;;;9.25;8.75;;;;;22.85;54.32;101108.13;5054465;28;46063;-69
2023/09/27 10:20:13;;;;;;;;;8.25;8.25;;;;;22.91;53.67;101098.81;5049582;28;45367;-69
2023/09/27 10:22:40;;;;;;;;;8.25;6.50;;;;;22.98;53.71;101096.56;5045318;28;45395;-73
2023/09/27 10:25:31;;;;;;;;;9.00;6.75;;;;;23.07;53.74;101091.44;5048746;28;46663;-69
2023/09/27 10:27:59;;;;;;;;;11.50;6.50;;;;;23.13;53.08;101093.63;5046321;28;45411;-69
2023/09/27 10:30:25;;;;;;;;;8.50;7.75;;;;;23.17;52.94;101086.25;5057998;28;45334;-70
2023/09/27 10:33:16;;;;;;;;;12.00;8.50;;;;;23.23;53.25;101085.81;5060168;28;45512;-70
2023/09/27 10:35:46;;;;;;;;;11.75;7.00;;;;;23.28;52.62;101088.97;5051012;28;45263;-70
2023/09/27 10:38:12;;;;;;;;;6.75;4.50;;;;;23.35;52.18;101088.50;5043348;28;46172;-69
2023/09/27 10:40:42;;;;;;;;;8.25;6.25;;;;;23.40;52.53;101078.34;5049204;28;45332;-70
2023/09/27 10:43:08;;;;;;;;;13.75;7.00;;;;;23.48;51.80;101078.63;5030877;28;45772;-71
2023/09/27 10:45:33;;;;;;;;;11.25;8.50;;;;;23.50;52.02;101074.00;5048497;28;46515;-78
2023/09/27 10:48:18;;;;;;;;;11.25;8.50;;;;;23.55;52.01;101071.84;5049091;28;69978;-75
2023/09/27 10:50:55;;;;;;;;;7.50;7.50;;;;;23.68;51.63;101080.59;5048958;28;45529;-75
2023/09/27 10:53:21;;;;;;;;;8.50;7.00;;;;;23.76;51.04;101084.50;5043773;28;45274;-71
2023/09/27 10:55:48;;;;;;;;;8.75;8.00;;;;;23.82;51.34;101090.25;5054826;28;46414;-72
2023/09/27 10:58:17;;;;;;;;;15.00;9.50;;;;;23.88;51.05;101097.78;5061881;28;45284;-71
2023/09/27 11:00:53;;;;;;;;;15.75;12.75;;;;;23.96;50.42;101096.38;5064301;27;45476;-71
2023/09/27 11:03:19;;;;;;;;;9.25;6.50;;;;;24.02;50.69;101090.53;5039908;28;45391;-69
2023/09/27 11:05:44;;;;;;;;;11.00;8.75;;;;;24.14;48.81;101089.56;5051038;28;47032;-68
2023/09/27 11:08:10;;;;;;;;;9.50;7.75;;;;;24.22;50.16;101096.97;5039241;28;45419;-68
2023/09/27 11:10:35;;;;;;;;;10.00;9.00;;;;;24.29;49.74;101089.31;5043474;28;45513;-68
2023/09/27 11:13:11;;;;;;;;;15.50;9.75;;;;;24.42;50.15;101090.06;5050814;28;45818;-69